Weather at Agriturismo Turus Airfield

Public forecast

Using degrees Celsius for public forecast. Weather courtesy of forecast.io.

Closest aviation weather report (METAR) to Agriturismo Turus Airfield

Closest report is Trieste–Friuli Venezia Giulia Airport, 6.5 nm (12.0 km) SSW.

2024/05/30 02:20 (retrieved 20 minutes ago)

LIPQ 300220Z AUTO 08002KT 9999 FEW130/// SCT230/// 14/13 Q1009

Closest aviation forecast (TAF) to Agriturismo Turus Airfield

Forecast is more than 6 hours old.

Closest forecast is Bolzano Airport, 97.5 nm (180.6 km) WNW.

2024/05/29 18:35 (retrieved 8 hours ago)

TAF LIPB 292124Z 2918/3018 CNL